sensor_id;sensor_type;location;lat;lon;timestamp;temperature;humidity
23715;DHT22;12036;50.858;4.472;2023-05-10T00:00:24;13.10;99.90
23715;DHT22;12036;50.858;4.472;2023-05-10T00:02:49;13.10;99.90
23715;DHT22;12036;50.858;4.472;2023-05-10T00:05:15;13.10;99.90
23715;DHT22;12036;50.858;4.472;2023-05-10T00:07:41;13.20;99.90
23715;DHT22;12036;50.858;4.472;2023-05-10T00:10:10;13.10;99.90
23715;DHT22;12036;50.858;4.472;2023-05-10T00:12:36;13.20;99.90
23715;DHT22;12036;50.858;4.472;2023-05-10T00:15:02;13.10;99.90
23715;DHT22;12036;50.858;4.472;2023-05-10T00:17:28;13.10;99.90
23715;DHT22;12036;50.858;4.472;2023-05-10T00:19:54;13.10;99.90
23715;DHT22;12036;50.858;4.472;2023-05-10T00:22:20;13.10;99.90
23715;DHT22;12036;50.858;4.472;2023-05-10T00:24:45;13.20;99.90
23715;DHT22;12036;50.858;4.472;2023-05-10T00:27:11;13.20;99.90
23715;DHT22;12036;50.858;4.472;2023-05-10T00:29:37;13.20;99.90
23715;DHT22;12036;50.858;4.472;2023-05-10T00:32:02;13.20;99.90
23715;DHT22;12036;50.858;4.472;2023-05-10T00:34:28;13.20;99.90
23715;DHT22;12036;50.858;4.472;2023-05-10T00:36:54;13.20;99.90
23715;DHT22;12036;50.858;4.472;2023-05-10T00:39:19;13.20;99.90
23715;DHT22;12036;50.858;4.472;2023-05-10T00:41:45;13.20;99.90
23715;DHT22;12036;50.858;4.472;2023-05-10T00:44:11;13.10;99.90
23715;DHT22;12036;50.858;4.472;2023-05-10T00:46:37;13.10;99.90
23715;DHT22;12036;50.858;4.472;2023-05-10T00:49:02;13.20;99.90
23715;DHT22;12036;50.858;4.472;2023-05-10T00:51:28;13.20;99.90
23715;DHT22;12036;50.858;4.472;2023-05-10T00:53:54;13.20;99.90
23715;DHT22;12036;50.858;4.472;2023-05-10T00:56:21;13.20;99.90
23715;DHT22;12036;50.858;4.472;2023-05-10T00:58:48;13.20;99.90
23715;DHT22;12036;50.858;4.472;2023-05-10T01:01:14;13.20;99.90
23715;DHT22;12036;50.858;4.472;2023-05-10T01:03:40;13.20;99.90
23715;DHT22;12036;50.858;4.472;2023-05-10T01:06:07;13.30;99.90
23715;DHT22;12036;50.858;4.472;2023-05-10T01:08:33;13.30;99.90
23715;DHT22;12036;50.858;4.472;2023-05-10T01:10:59;13.20;99.90
23715;DHT22;12036;50.858;4.472;2023-05-10T01:13:33;13.20;99.90
23715;DHT22;12036;50.858;4.472;2023-05-10T01:16:00;13.20;99.90
23715;DHT22;12036;50.858;4.472;2023-05-10T01:18:33;13.20;99.90
23715;DHT22;12036;50.858;4.472;2023-05-10T01:23:42;13.20;99.90
23715;DHT22;12036;50.858;4.472;2023-05-10T01:34:35;13.10;99.90
23715;DHT22;12036;50.858;4.472;2023-05-10T01:37:15;13.20;99.90
23715;DHT22;12036;50.858;4.472;2023-05-10T01:42:12;13.20;99.90
23715;DHT22;12036;50.858;4.472;2023-05-10T01:44:58;13.10;99.90
23715;DHT22;12036;50.858;4.472;2023-05-10T01:47:42;13.20;99.90
23715;DHT22;12036;50.858;4.472;2023-05-10T01:50:15;13.10;99.90
23715;DHT22;12036;50.858;4.472;2023-05-10T01:52:47;13.20;99.90
23715;DHT22;12036;50.858;4.472;2023-05-10T01:55:16;13.20;99.90
23715;DHT22;12036;50.858;4.472;2023-05-10T01:57:44;13.30;99.90
23715;DHT22;12036;50.858;4.472;2023-05-10T02:00:12;13.40;99.90
23715;DHT22;12036;50.858;4.472;2023-05-10T02:02:42;13.20;99.90
23715;DHT22;12036;50.858;4.472;2023-05-10T02:05:12;13.30;99.90
23715;DHT22;12036;50.858;4.472;2023-05-10T02:07:39;13.30;99.90
23715;DHT22;12036;50.858;4.472;2023-05-10T02:10:07;13.30;99.90
23715;DHT22;12036;50.858;4.472;2023-05-10T02:12:41;13.30;99.90
23715;DHT22;12036;50.858;4.472;2023-05-10T02:15:07;13.30;99.90
23715;DHT22;12036;50.858;4.472;2023-05-10T02:17:35;13.20;99.90
23715;DHT22;12036;50.858;4.472;2023-05-10T02:20:04;13.30;99.90
23715;DHT22;12036;50.858;4.472;2023-05-10T02:22:31;13.30;99.90
23715;DHT22;12036;50.858;4.472;2023-05-10T02:24:58;13.20;99.90
23715;DHT22;12036;50.858;4.472;2023-05-10T02:27:27;13.30;99.90
23715;DHT22;12036;50.858;4.472;2023-05-10T02:29:53;13.30;99.90
23715;DHT22;12036;50.858;4.472;2023-05-10T02:32:21;13.30;99.90
23715;DHT22;12036;50.858;4.472;2023-05-10T02:34:48;13.40;99.90
23715;DHT22;12036;50.858;4.472;2023-05-10T02:37:18;13.30;99.90
23715;DHT22;12036;50.858;4.472;2023-05-10T02:39:47;13.30;99.90
23715;DHT22;12036;50.858;4.472;2023-05-10T02:42:24;13.40;99.90
23715;DHT22;12036;50.858;4.472;2023-05-10T02:44:52;13.30;99.90
23715;DHT22;12036;50.858;4.472;2023-05-10T02:47:18;13.30;99.90
23715;DHT22;12036;50.858;4.472;2023-05-10T02:49:44;13.40;99.90
23715;DHT22;12036;50.858;4.472;2023-05-10T02:52:11;13.20;99.90
23715;DHT22;12036;50.858;4.472;2023-05-10T02:54:45;13.20;99.90
23715;DHT22;12036;50.858;4.472;2023-05-10T02:57:15;13.20;99.90
23715;DHT22;12036;50.858;4.472;2023-05-10T02:59:41;13.20;99.90
23715;DHT22;12036;50.858;4.472;2023-05-10T03:02:12;13.20;99.90
23715;DHT22;12036;50.858;4.472;2023-05-10T03:04:38;13.20;99.90
23715;DHT22;12036;50.858;4.472;2023-05-10T03:07:04;13.20;99.90
23715;DHT22;12036;50.858;4.472;2023-05-10T03:09:31;13.20;99.90
23715;DHT22;12036;50.858;4.472;2023-05-10T03:17:57;13.20;99.90
23715;DHT22;12036;50.858;4.472;2023-05-10T03:20:34;13.20;99.90
23715;DHT22;12036;50.858;4.472;2023-05-10T03:26:27;13.20;99.90
23715;DHT22;12036;50.858;4.472;2023-05-10T03:28:54;13.20;99.90
23715;DHT22;12036;50.858;4.472;2023-05-10T03:31:21;13.30;99.90
23715;DHT22;12036;50.858;4.472;2023-05-10T03:33:51;13.10;99.90
23715;DHT22;12036;50.858;4.472;2023-05-10T03:36:17;13.10;99.90
23715;DHT22;12036;50.858;4.472;2023-05-10T03:38:43;13.20;99.90
23715;DHT22;12036;50.858;4.472;2023-05-10T03:41:09;13.10;99.90
23715;DHT22;12036;50.858;4.472;2023-05-10T03:43:34;13.20;99.90
23715;DHT22;12036;50.858;4.472;2023-05-10T03:46:04;13.10;99.90
23715;DHT22;12036;50.858;4.472;2023-05-10T03:48:30;13.10;99.90
23715;DHT22;12036;50.858;4.472;2023-05-10T03:50:55;13.00;99.90
23715;DHT22;12036;50.858;4.472;2023-05-10T03:53:21;12.90;99.90
23715;DHT22;12036;50.858;4.472;2023-05-10T03:55:48;12.90;99.90
23715;DHT22;12036;50.858;4.472;2023-05-10T03:58:14;12.90;99.90
23715;DHT22;12036;50.858;4.472;2023-05-10T04:00:40;12.90;99.90
23715;DHT22;12036;50.858;4.472;2023-05-10T04:03:09;12.80;99.90
23715;DHT22;12036;50.858;4.472;2023-05-10T04:05:35;12.80;99.90
23715;DHT22;12036;50.858;4.472;2023-05-10T04:08:02;12.80;99.90
23715;DHT22;12036;50.858;4.472;2023-05-10T04:10:27;12.80;99.90
23715;DHT22;12036;50.858;4.472;2023-05-10T04:12:53;12.80;99.90
23715;DHT22;12036;50.858;4.472;2023-05-10T04:15:19;12.80;99.90
23715;DHT22;12036;50.858;4.472;2023-05-10T04:17:44;12.80;99.90
23715;DHT22;12036;50.858;4.472;2023-05-10T04:20:11;12.70;99.90
23715;DHT22;12036;50.858;4.472;2023-05-10T04:22:36;12.70;99.90
23715;DHT22;12036;50.858;4.472;2023-05-10T04:25:02;12.70;99.90
23715;DHT22;12036;50.858;4.472;2023-05-10T04:27:28;12.80;99.90
23715;DHT22;12036;50.858;4.472;2023-05-10T04:29:53;12.80;99.90
23715;DHT22;12036;50.858;4.472;2023-05-10T04:32:19;12.70;99.90
23715;DHT22;12036;50.858;4.472;2023-05-10T04:34:45;12.70;99.90
23715;DHT22;12036;50.858;4.472;2023-05-10T04:37:11;12.60;99.90
23715;DHT22;12036;50.858;4.472;2023-05-10T04:39:36;12.70;99.90
23715;DHT22;12036;50.858;4.472;2023-05-10T04:42:05;12.60;99.90
23715;DHT22;12036;50.858;4.472;2023-05-10T04:44:32;12.70;99.90
23715;DHT22;12036;50.858;4.472;2023-05-10T04:46:57;12.70;99.90
23715;DHT22;12036;50.858;4.472;2023-05-10T04:49:23;12.70;99.90
23715;DHT22;12036;50.858;4.472;2023-05-10T04:51:49;12.70;99.90
23715;DHT22;12036;50.858;4.472;2023-05-10T04:54:15;12.70;99.90
23715;DHT22;12036;50.858;4.472;2023-05-10T04:56:40;12.70;99.90
23715;DHT22;12036;50.858;4.472;2023-05-10T04:59:06;12.80;99.90
23715;DHT22;12036;50.858;4.472;2023-05-10T05:01:32;12.80;99.90
23715;DHT22;12036;50.858;4.472;2023-05-10T05:03:58;12.90;99.90
23715;DHT22;12036;50.858;4.472;2023-05-10T05:06:24;12.90;99.90
23715;DHT22;12036;50.858;4.472;2023-05-10T05:08:50;12.80;99.90
23715;DHT22;12036;50.858;4.472;2023-05-10T05:11:17;12.80;99.90
23715;DHT22;12036;50.858;4.472;2023-05-10T05:13:42;12.90;99.90
23715;DHT22;12036;50.858;4.472;2023-05-10T05:16:08;12.90;99.90
23715;DHT22;12036;50.858;4.472;2023-05-10T05:18:34;12.90;99.90
23715;DHT22;12036;50.858;4.472;2023-05-10T05:21:00;12.90;99.90
23715;DHT22;12036;50.858;4.472;2023-05-10T05:23:26;12.90;99.90
23715;DHT22;12036;50.858;4.472;2023-05-10T05:25:52;13.00;99.90
23715;DHT22;12036;50.858;4.472;2023-05-10T05:28:19;13.00;99.90
23715;DHT22;12036;50.858;4.472;2023-05-10T05:30:45;13.00;99.90
23715;DHT22;12036;50.858;4.472;2023-05-10T05:33:12;13.00;99.90
23715;DHT22;12036;50.858;4.472;2023-05-10T05:35:38;12.90;99.90
23715;DHT22;12036;50.858;4.472;2023-05-10T05:38:04;13.00;99.90
23715;DHT22;12036;50.858;4.472;2023-05-10T05:40:29;13.00;99.90
23715;DHT22;12036;50.858;4.472;2023-05-10T05:42:55;13.00;99.90
23715;DHT22;12036;50.858;4.472;2023-05-10T05:45:21;13.10;99.90
23715;DHT22;12036;50.858;4.472;2023-05-10T05:47:46;13.20;99.90
23715;DHT22;12036;50.858;4.472;2023-05-10T05:50:12;13.20;99.90
23715;DHT22;12036;50.858;4.472;2023-05-10T05:52:38;13.30;99.90
23715;DHT22;12036;50.858;4.472;2023-05-10T05:55:04;13.50;99.90
23715;DHT22;12036;50.858;4.472;2023-05-10T05:57:30;13.50;99.90
23715;DHT22;12036;50.858;4.472;2023-05-10T05:59:55;13.60;99.90
23715;DHT22;12036;50.858;4.472;2023-05-10T06:02:21;13.70;99.90
23715;DHT22;12036;50.858;4.472;2023-05-10T06:04:47;13.70;99.90
23715;DHT22;12036;50.858;4.472;2023-05-10T06:07:12;13.70;99.90
23715;DHT22;12036;50.858;4.472;2023-05-10T06:09:38;13.70;99.90
23715;DHT22;12036;50.858;4.472;2023-05-10T06:12:03;13.70;99.90
23715;DHT22;12036;50.858;4.472;2023-05-10T06:14:29;13.70;99.90
23715;DHT22;12036;50.858;4.472;2023-05-10T06:16:55;13.80;99.90
23715;DHT22;12036;50.858;4.472;2023-05-10T06:19:20;13.90;99.90
23715;DHT22;12036;50.858;4.472;2023-05-10T06:21:46;13.80;99.90
23715;DHT22;12036;50.858;4.472;2023-05-10T06:24:11;13.80;99.90
23715;DHT22;12036;50.858;4.472;2023-05-10T06:26:37;13.90;99.90
23715;DHT22;12036;50.858;4.472;2023-05-10T06:29:03;13.90;99.90
23715;DHT22;12036;50.858;4.472;2023-05-10T06:31:28;13.90;99.90
23715;DHT22;12036;50.858;4.472;2023-05-10T06:33:54;13.70;99.90
23715;DHT22;12036;50.858;4.472;2023-05-10T06:36:19;13.70;99.90
23715;DHT22;12036;50.858;4.472;2023-05-10T06:38:45;13.70;99.90
23715;DHT22;12036;50.858;4.472;2023-05-10T06:41:11;13.80;99.90
23715;DHT22;12036;50.858;4.472;2023-05-10T06:43:37;13.80;99.90
23715;DHT22;12036;50.858;4.472;2023-05-10T06:46:05;13.80;99.90
23715;DHT22;12036;50.858;4.472;2023-05-10T06:48:31;13.70;99.90
23715;DHT22;12036;50.858;4.472;2023-05-10T06:50:57;13.50;99.90
23715;DHT22;12036;50.858;4.472;2023-05-10T06:53:23;13.40;99.90
23715;DHT22;12036;50.858;4.472;2023-05-10T06:55:49;13.40;99.90
23715;DHT22;12036;50.858;4.472;2023-05-10T06:58:15;13.40;99.90
23715;DHT22;12036;50.858;4.472;2023-05-10T07:00:41;13.30;99.90
23715;DHT22;12036;50.858;4.472;2023-05-10T07:03:09;13.20;99.90
23715;DHT22;12036;50.858;4.472;2023-05-10T07:05:35;13.20;99.90
23715;DHT22;12036;50.858;4.472;2023-05-10T07:08:01;13.10;99.90
23715;DHT22;12036;50.858;4.472;2023-05-10T07:10:27;13.20;99.90
23715;DHT22;12036;50.858;4.472;2023-05-10T07:12:52;13.20;99.90
23715;DHT22;12036;50.858;4.472;2023-05-10T07:15:18;13.10;99.90
23715;DHT22;12036;50.858;4.472;2023-05-10T07:17:44;13.20;99.90
23715;DHT22;12036;50.858;4.472;2023-05-10T07:20:11;13.00;99.90
23715;DHT22;12036;50.858;4.472;2023-05-10T07:22:36;13.10;99.90
23715;DHT22;12036;50.858;4.472;2023-05-10T07:25:02;13.10;99.90
23715;DHT22;12036;50.858;4.472;2023-05-10T07:27:28;13.00;99.90
23715;DHT22;12036;50.858;4.472;2023-05-10T07:29:53;12.90;99.90
23715;DHT22;12036;50.858;4.472;2023-05-10T07:32:20;12.90;99.90
23715;DHT22;12036;50.858;4.472;2023-05-10T07:34:46;12.90;99.90
23715;DHT22;12036;50.858;4.472;2023-05-10T07:37:11;12.80;99.90
23715;DHT22;12036;50.858;4.472;2023-05-10T07:39:37;12.70;99.90
23715;DHT22;12036;50.858;4.472;2023-05-10T07:42:03;12.60;99.90
23715;DHT22;12036;50.858;4.472;2023-05-10T07:44:28;12.60;99.90
23715;DHT22;12036;50.858;4.472;2023-05-10T07:46:54;12.60;99.90
23715;DHT22;12036;50.858;4.472;2023-05-10T07:49:21;12.60;99.90
23715;DHT22;12036;50.858;4.472;2023-05-10T07:51:47;12.60;99.90
23715;DHT22;12036;50.858;4.472;2023-05-10T07:54:14;12.60;99.90
23715;DHT22;12036;50.858;4.472;2023-05-10T07:56:39;12.60;99.90
23715;DHT22;12036;50.858;4.472;2023-05-10T07:59:10;12.60;99.90
23715;DHT22;12036;50.858;4.472;2023-05-10T08:01:35;12.70;99.90
23715;DHT22;12036;50.858;4.472;2023-05-10T08:04:01;12.60;99.90
23715;DHT22;12036;50.858;4.472;2023-05-10T08:06:27;12.70;99.90
23715;DHT22;12036;50.858;4.472;2023-05-10T08:08:55;12.70;99.90
23715;DHT22;12036;50.858;4.472;2023-05-10T08:11:21;12.70;99.90
23715;DHT22;12036;50.858;4.472;2023-05-10T08:13:47;12.70;99.90
23715;DHT22;12036;50.858;4.472;2023-05-10T08:16:13;12.80;99.90
23715;DHT22;12036;50.858;4.472;2023-05-10T08:18:39;12.90;99.90
23715;DHT22;12036;50.858;4.472;2023-05-10T08:21:05;12.90;99.90
23715;DHT22;12036;50.858;4.472;2023-05-10T08:23:31;12.90;99.90
23715;DHT22;12036;50.858;4.472;2023-05-10T08:25:57;13.00;99.90
23715;DHT22;12036;50.858;4.472;2023-05-10T08:28:22;13.10;99.90
23715;DHT22;12036;50.858;4.472;2023-05-10T08:30:50;13.20;99.90
23715;DHT22;12036;50.858;4.472;2023-05-10T08:33:17;13.30;99.90
23715;DHT22;12036;50.858;4.472;2023-05-10T08:35:42;13.30;99.90
23715;DHT22;12036;50.858;4.472;2023-05-10T08:38:08;13.20;99.90
23715;DHT22;12036;50.858;4.472;2023-05-10T08:40:34;13.20;99.90
23715;DHT22;12036;50.858;4.472;2023-05-10T08:43:05;13.20;99.90
23715;DHT22;12036;50.858;4.472;2023-05-10T08:45:35;13.40;99.90
23715;DHT22;12036;50.858;4.472;2023-05-10T08:48:02;13.40;99.90
23715;DHT22;12036;50.858;4.472;2023-05-10T08:50:31;13.50;99.90
23715;DHT22;12036;50.858;4.472;2023-05-10T08:52:59;13.60;99.90
23715;DHT22;12036;50.858;4.472;2023-05-10T08:55:25;13.70;99.90
23715;DHT22;12036;50.858;4.472;2023-05-10T08:57:51;13.70;99.90
23715;DHT22;12036;50.858;4.472;2023-05-10T09:00:18;13.70;99.90
23715;DHT22;12036;50.858;4.472;2023-05-10T09:02:45;13.70;99.90
23715;DHT22;12036;50.858;4.472;2023-05-10T09:05:13;13.80;99.90
23715;DHT22;12036;50.858;4.472;2023-05-10T09:07:41;13.70;99.90
23715;DHT22;12036;50.858;4.472;2023-05-10T09:10:08;13.70;99.90
23715;DHT22;12036;50.858;4.472;2023-05-10T09:12:35;13.80;99.90
23715;DHT22;12036;50.858;4.472;2023-05-10T09:15:01;14.00;99.90
23715;DHT22;12036;50.858;4.472;2023-05-10T09:17:29;13.90;99.90
23715;DHT22;12036;50.858;4.472;2023-05-10T09:20:03;13.90;99.90
23715;DHT22;12036;50.858;4.472;2023-05-10T09:22:30;13.90;99.90
23715;DHT22;12036;50.858;4.472;2023-05-10T09:25:12;13.70;99.90
23715;DHT22;12036;50.858;4.472;2023-05-10T09:27:39;13.80;99.90
23715;DHT22;12036;50.858;4.472;2023-05-10T09:30:07;13.70;99.90
23715;DHT22;12036;50.858;4.472;2023-05-10T09:32:51;13.80;99.90
23715;DHT22;12036;50.858;4.472;2023-05-10T09:35:19;13.70;99.90
23715;DHT22;12036;50.858;4.472;2023-05-10T09:37:48;13.70;99.90
23715;DHT22;12036;50.858;4.472;2023-05-10T09:40:25;13.70;99.90
23715;DHT22;12036;50.858;4.472;2023-05-10T09:42:59;13.60;99.90
23715;DHT22;12036;50.858;4.472;2023-05-10T09:45:30;13.40;99.90
23715;DHT22;12036;50.858;4.472;2023-05-10T09:47:57;13.30;99.90
23715;DHT22;12036;50.858;4.472;2023-05-10T09:50:23;13.20;99.90
23715;DHT22;12036;50.858;4.472;2023-05-10T09:52:50;13.20;99.90
23715;DHT22;12036;50.858;4.472;2023-05-10T09:55:17;13.10;99.90
23715;DHT22;12036;50.858;4.472;2023-05-10T09:57:44;13.00;99.90
23715;DHT22;12036;50.858;4.472;2023-05-10T10:00:10;13.10;99.90
23715;DHT22;12036;50.858;4.472;2023-05-10T10:02:41;13.20;99.90
23715;DHT22;12036;50.858;4.472;2023-05-10T10:05:07;13.20;99.90
23715;DHT22;12036;50.858;4.472;2023-05-10T10:07:33;13.20;99.90
23715;DHT22;12036;50.858;4.472;2023-05-10T10:10:00;13.20;99.90
23715;DHT22;12036;50.858;4.472;2023-05-10T10:12:26;13.10;99.90
23715;DHT22;12036;50.858;4.472;2023-05-10T10:14:52;13.10;99.90
23715;DHT22;12036;50.858;4.472;2023-05-10T10:17:19;13.10;99.90
23715;DHT22;12036;50.858;4.472;2023-05-10T10:19:46;13.10;99.90
23715;DHT22;12036;50.858;4.472;2023-05-10T10:22:12;13.10;99.90
23715;DHT22;12036;50.858;4.472;2023-05-10T10:24:39;13.20;99.90
23715;DHT22;12036;50.858;4.472;2023-05-10T10:27:23;13.20;99.90
23715;DHT22;12036;50.858;4.472;2023-05-10T10:35:20;13.30;99.90
23715;DHT22;12036;50.858;4.472;2023-05-10T10:37:47;13.20;99.90
23715;DHT22;12036;50.858;4.472;2023-05-10T10:40:27;13.30;99.90
23715;DHT22;12036;50.858;4.472;2023-05-10T10:42:54;13.40;99.90
23715;DHT22;12036;50.858;4.472;2023-05-10T10:45:21;13.30;99.90
23715;DHT22;12036;50.858;4.472;2023-05-10T10:47:47;13.30;99.90
23715;DHT22;12036;50.858;4.472;2023-05-10T10:50:14;13.40;99.90
23715;DHT22;12036;50.858;4.472;2023-05-10T11:00:22;13.70;99.90
23715;DHT22;12036;50.858;4.472;2023-05-10T11:02:50;13.70;99.90
23715;DHT22;12036;50.858;4.472;2023-05-10T11:10:38;13.70;99.90
23715;DHT22;12036;50.858;4.472;2023-05-10T11:13:06;13.80;99.90
23715;DHT22;12036;50.858;4.472;2023-05-10T11:15:39;14.00;99.90
23715;DHT22;12036;50.858;4.472;2023-05-10T11:18:19;13.80;99.90
23715;DHT22;12036;50.858;4.472;2023-05-10T11:23:21;14.00;99.90
23715;DHT22;12036;50.858;4.472;2023-05-10T11:25:48;14.30;99.90
23715;DHT22;12036;50.858;4.472;2023-05-10T11:28:17;14.20;99.90
23715;DHT22;12036;50.858;4.472;2023-05-10T11:30:43;14.40;99.90
23715;DHT22;12036;50.858;4.472;2023-05-10T11:33:14;14.60;99.90
23715;DHT22;12036;50.858;4.472;2023-05-10T11:35:41;14.80;99.90
23715;DHT22;12036;50.858;4.472;2023-05-10T11:38:08;14.80;99.90
23715;DHT22;12036;50.858;4.472;2023-05-10T11:40:34;14.90;99.90
23715;DHT22;12036;50.858;4.472;2023-05-10T11:43:00;15.10;99.90
23715;DHT22;12036;50.858;4.472;2023-05-10T11:45:26;15.20;99.90
23715;DHT22;12036;50.858;4.472;2023-05-10T11:47:54;14.90;99.90
23715;DHT22;12036;50.858;4.472;2023-05-10T11:50:20;14.70;99.90
23715;DHT22;12036;50.858;4.472;2023-05-10T11:52:50;14.70;99.90
23715;DHT22;12036;50.858;4.472;2023-05-10T11:55:16;14.70;99.90
23715;DHT22;12036;50.858;4.472;2023-05-10T11:57:42;14.80;99.90
23715;DHT22;12036;50.858;4.472;2023-05-10T12:00:10;15.20;99.90
23715;DHT22;12036;50.858;4.472;2023-05-10T12:02:36;15.10;99.90
23715;DHT22;12036;50.858;4.472;2023-05-10T12:05:03;15.30;99.90
23715;DHT22;12036;50.858;4.472;2023-05-10T12:07:29;15.50;99.90
23715;DHT22;12036;50.858;4.472;2023-05-10T12:10:08;15.30;99.90
23715;DHT22;12036;50.858;4.472;2023-05-10T12:12:42;15.60;99.90
23715;DHT22;12036;50.858;4.472;2023-05-10T12:15:22;15.90;99.90
23715;DHT22;12036;50.858;4.472;2023-05-10T12:17:48;16.20;99.90
23715;DHT22;12036;50.858;4.472;2023-05-10T12:20:17;16.40;99.90
23715;DHT22;12036;50.858;4.472;2023-05-10T12:22:51;16.60;99.90
23715;DHT22;12036;50.858;4.472;2023-05-10T12:25:22;16.70;99.90
23715;DHT22;12036;50.858;4.472;2023-05-10T12:27:52;16.70;99.90
23715;DHT22;12036;50.858;4.472;2023-05-10T12:30:23;16.90;99.90
23715;DHT22;12036;50.858;4.472;2023-05-10T12:32:49;17.00;99.90
23715;DHT22;12036;50.858;4.472;2023-05-10T12:35:15;17.00;99.90
23715;DHT22;12036;50.858;4.472;2023-05-10T12:37:43;16.80;99.90
23715;DHT22;12036;50.858;4.472;2023-05-10T12:40:10;16.80;99.90
23715;DHT22;12036;50.858;4.472;2023-05-10T12:42:36;16.80;99.90
23715;DHT22;12036;50.858;4.472;2023-05-10T12:45:03;17.10;99.90
23715;DHT22;12036;50.858;4.472;2023-05-10T12:47:29;17.30;99.90
23715;DHT22;12036;50.858;4.472;2023-05-10T12:49:55;17.60;99.90
23715;DHT22;12036;50.858;4.472;2023-05-10T12:52:21;17.80;99.90
23715;DHT22;12036;50.858;4.472;2023-05-10T12:54:46;17.70;99.90
23715;DHT22;12036;50.858;4.472;2023-05-10T12:57:13;17.60;99.90
23715;DHT22;12036;50.858;4.472;2023-05-10T12:59:39;17.80;99.90
23715;DHT22;12036;50.858;4.472;2023-05-10T13:02:05;17.80;99.90
23715;DHT22;12036;50.858;4.472;2023-05-10T13:04:31;17.80;99.90
23715;DHT22;12036;50.858;4.472;2023-05-10T13:06:56;17.70;99.90
23715;DHT22;12036;50.858;4.472;2023-05-10T13:09:24;17.60;99.90
23715;DHT22;12036;50.858;4.472;2023-05-10T13:11:51;17.40;99.90
23715;DHT22;12036;50.858;4.472;2023-05-10T13:14:18;17.40;99.90
23715;DHT22;12036;50.858;4.472;2023-05-10T13:16:46;17.30;99.90
23715;DHT22;12036;50.858;4.472;2023-05-10T13:19:12;17.10;99.90
23715;DHT22;12036;50.858;4.472;2023-05-10T13:21:38;17.10;99.90
23715;DHT22;12036;50.858;4.472;2023-05-10T13:24:06;17.10;99.90
23715;DHT22;12036;50.858;4.472;2023-05-10T13:26:32;17.10;99.90
23715;DHT22;12036;50.858;4.472;2023-05-10T13:28:58;17.20;99.90
23715;DHT22;12036;50.858;4.472;2023-05-10T13:31:23;17.20;99.90
23715;DHT22;12036;50.858;4.472;2023-05-10T13:33:49;17.20;99.90
23715;DHT22;12036;50.858;4.472;2023-05-10T13:36:15;17.30;99.90
23715;DHT22;12036;50.858;4.472;2023-05-10T13:38:40;17.20;99.90
23715;DHT22;12036;50.858;4.472;2023-05-10T13:41:06;17.10;99.90
23715;DHT22;12036;50.858;4.472;2023-05-10T13:43:31;17.10;99.90
23715;DHT22;12036;50.858;4.472;2023-05-10T13:45:57;17.20;99.90
23715;DHT22;12036;50.858;4.472;2023-05-10T13:48:23;17.10;99.90
23715;DHT22;12036;50.858;4.472;2023-05-10T13:50:48;16.90;99.90
23715;DHT22;12036;50.858;4.472;2023-05-10T13:53:15;17.00;99.90
23715;DHT22;12036;50.858;4.472;2023-05-10T13:55:41;17.00;99.90
23715;DHT22;12036;50.858;4.472;2023-05-10T13:58:06;16.80;99.90
23715;DHT22;12036;50.858;4.472;2023-05-10T14:00:32;17.00;99.90
23715;DHT22;12036;50.858;4.472;2023-05-10T14:02:58;17.10;99.90
23715;DHT22;12036;50.858;4.472;2023-05-10T14:05:23;17.40;99.90
23715;DHT22;12036;50.858;4.472;2023-05-10T14:07:50;17.20;99.90
23715;DHT22;12036;50.858;4.472;2023-05-10T14:10:16;17.20;99.90
23715;DHT22;12036;50.858;4.472;2023-05-10T14:12:41;17.40;99.90
23715;DHT22;12036;50.858;4.472;2023-05-10T14:15:07;17.30;99.90
23715;DHT22;12036;50.858;4.472;2023-05-10T14:17:35;17.20;99.90
23715;DHT22;12036;50.858;4.472;2023-05-10T14:20:01;17.00;99.90
23715;DHT22;12036;50.858;4.472;2023-05-10T14:22:27;16.80;99.90
23715;DHT22;12036;50.858;4.472;2023-05-10T14:24:53;16.30;99.90
23715;DHT22;12036;50.858;4.472;2023-05-10T14:27:18;16.50;99.90
23715;DHT22;12036;50.858;4.472;2023-05-10T14:29:44;16.60;99.90
23715;DHT22;12036;50.858;4.472;2023-05-10T14:32:10;16.60;99.90
23715;DHT22;12036;50.858;4.472;2023-05-10T14:34:36;16.50;99.90
23715;DHT22;12036;50.858;4.472;2023-05-10T14:37:01;16.40;99.90
23715;DHT22;12036;50.858;4.472;2023-05-10T14:39:27;16.20;99.90
23715;DHT22;12036;50.858;4.472;2023-05-10T14:41:55;16.30;99.90
23715;DHT22;12036;50.858;4.472;2023-05-10T14:44:20;16.10;99.90
23715;DHT22;12036;50.858;4.472;2023-05-10T14:46:46;16.10;99.90
23715;DHT22;12036;50.858;4.472;2023-05-10T14:49:13;16.10;99.90
23715;DHT22;12036;50.858;4.472;2023-05-10T14:51:39;16.10;99.90
23715;DHT22;12036;50.858;4.472;2023-05-10T14:54:04;16.00;99.90
23715;DHT22;12036;50.858;4.472;2023-05-10T14:56:31;16.00;99.90
23715;DHT22;12036;50.858;4.472;2023-05-10T14:58:57;15.90;99.90
23715;DHT22;12036;50.858;4.472;2023-05-10T15:01:23;15.80;99.90
23715;DHT22;12036;50.858;4.472;2023-05-10T15:03:48;15.70;99.90
23715;DHT22;12036;50.858;4.472;2023-05-10T15:06:15;15.50;99.90
23715;DHT22;12036;50.858;4.472;2023-05-10T15:08:43;15.30;99.90
23715;DHT22;12036;50.858;4.472;2023-05-10T15:11:09;15.20;99.90
23715;DHT22;12036;50.858;4.472;2023-05-10T15:13:34;15.00;99.90
23715;DHT22;12036;50.858;4.472;2023-05-10T15:16:00;15.00;99.90
23715;DHT22;12036;50.858;4.472;2023-05-10T15:18:26;15.10;99.90
23715;DHT22;12036;50.858;4.472;2023-05-10T15:20:52;15.10;99.90
23715;DHT22;12036;50.858;4.472;2023-05-10T15:23:17;15.00;99.90
23715;DHT22;12036;50.858;4.472;2023-05-10T15:25:43;15.00;99.90
23715;DHT22;12036;50.858;4.472;2023-05-10T15:28:09;15.00;99.90
23715;DHT22;12036;50.858;4.472;2023-05-10T15:30:34;14.90;99.90
23715;DHT22;12036;50.858;4.472;2023-05-10T15:33:00;14.80;99.90
23715;DHT22;12036;50.858;4.472;2023-05-10T15:35:26;14.80;99.90
23715;DHT22;12036;50.858;4.472;2023-05-10T15:37:52;14.80;99.90
23715;DHT22;12036;50.858;4.472;2023-05-10T15:40:17;14.90;99.90
23715;DHT22;12036;50.858;4.472;2023-05-10T15:42:43;14.90;99.90
23715;DHT22;12036;50.858;4.472;2023-05-10T15:45:09;14.80;99.90
23715;DHT22;12036;50.858;4.472;2023-05-10T15:47:37;14.80;99.90
23715;DHT22;12036;50.858;4.472;2023-05-10T15:50:06;14.90;99.90
23715;DHT22;12036;50.858;4.472;2023-05-10T15:52:31;14.90;99.90
23715;DHT22;12036;50.858;4.472;2023-05-10T15:54:57;14.90;99.90
23715;DHT22;12036;50.858;4.472;2023-05-10T15:57:23;14.90;99.90
23715;DHT22;12036;50.858;4.472;2023-05-10T15:59:48;14.90;99.90
23715;DHT22;12036;50.858;4.472;2023-05-10T16:02:15;14.90;99.90
23715;DHT22;12036;50.858;4.472;2023-05-10T16:04:42;15.00;99.90
23715;DHT22;12036;50.858;4.472;2023-05-10T16:07:08;15.00;99.90
23715;DHT22;12036;50.858;4.472;2023-05-10T16:09:34;15.00;99.90
23715;DHT22;12036;50.858;4.472;2023-05-10T16:12:00;15.00;99.90